Lake City, CO (81235)

8:45 PM MDT on August 29, 2016 (GMT -0600)
KCOLAKEC2 | | Change Station

Elev 8666 ft 38.03 °N, 107.31 °W | Updated 441 days ago

Mostly Cloudy
Mostly Cloudy
49 °F
Feels Like 49 °F
N
5
Wind Variable Wind from SSE
Gusts mph

Today
High -- | Low -- °F
--% Chance of Precip.
Yesterday
High -- | Low -- °F
Precip. -- in
Pressure 30.51 in
Visibility 10.0 miles
Clouds Scattered Clouds 7000 ft
Overcast 10000 ft
Dew Point 42 °F
Humidity 79%
Rainfall in
Snow Depth Not available.
6:37 AM 7:42 PM
Waning Crescent, 5% visible
METAR KTEX 300235Z AUTO 00000KT 10SM SCT070 OVC100 12/06 A3051 RMK AO2 T01180058
Pressure 30.51 in
Visibility 10.0 miles
Clouds Scattered Clouds 7000 ft
Overcast 10000 ft
Dew Point 42 °F
Humidity 79%
Rainfall in
Snow Depth Not available.
6:37 AM 7:42 PM
Waning Crescent, 5% visible
METAR KTEX 300235Z AUTO 00000KT 10SM SCT070 OVC100 12/06 A3051 RMK AO2 T01180058

10-Day Weather Forecast

Almanac

Astronomy

Aug. 29, 2016 Rise Set
Actual Time
Civil Twilight
Nautical Twilight
Astronomical Twilight
Moon
Length of Visible Light
Length of Day
Tomorrow will be .
, % of the Moon is Illuminated

Today's Extremes

State Highs State Lows

Community

WunderPhotos

Upload Photos

1,935,747 photos uploaded!

WunderBlog® & News

Nearby

Air Quality

  Air Quality AQ Index Pollutant
Not available.

Snow Depth

Station Depth Elevation

Earthquake Activity

City Distance Mag. Time & Date
Minimum magnitude displayed is 2.5.

Coastal Water Temperatures

Place Temperature

Stations

Nearby Weather Stations

Station Location Temp. Windchill Dew Point Humidity Wind Precip. Elev Updated Type
                   

Watches & Warnings

There are currently no watches in effect.